createdAt,value
2018-04-16T00:00:21.689Z,99.22
2018-04-16T00:01:21.748Z,99.04
2018-04-16T00:02:21.807Z,98.65
2018-04-16T00:03:21.864Z,98.75
2018-04-16T00:04:21.927Z,98.94
2018-04-16T00:05:21.986Z,99.22
2018-04-16T00:06:22.248Z,99.51
2018-04-16T00:07:22.100Z,99.41
2018-04-16T00:08:22.159Z,99.51
2018-04-16T00:09:22.218Z,99.70
2018-04-16T00:10:22.276Z,99.80
2018-04-16T00:11:22.334Z,99.94
2018-04-16T00:12:22.544Z,99.70
2018-04-16T00:13:22.452Z,99.70
2018-04-16T00:14:22.510Z,99.89
2018-04-16T00:15:22.571Z,99.99
2018-04-16T00:16:22.629Z,99.41
2018-04-16T00:17:22.687Z,99.51
2018-04-16T00:18:22.746Z,99.46
2018-04-16T00:19:22.807Z,99.84
2018-04-16T00:20:22.864Z,99.99
2018-04-16T00:21:22.921Z,99.99
2018-04-16T00:22:22.980Z,99.99
2018-04-16T00:23:23.038Z,99.99
2018-04-16T00:24:23.096Z,99.99
2018-04-16T00:25:23.155Z,99.99
2018-04-16T00:26:23.214Z,99.99
2018-04-16T00:27:23.273Z,99.99
2018-04-16T00:28:23.331Z,99.99
2018-04-16T00:29:23.390Z,99.99
2018-04-16T00:30:23.448Z,99.99
2018-04-16T00:31:23.505Z,99.99
2018-04-16T00:32:23.564Z,99.99
2018-04-16T00:33:23.625Z,99.99
2018-04-16T00:34:23.682Z,99.99
2018-04-16T00:35:23.740Z,99.99
2018-04-16T00:36:23.799Z,99.99
2018-04-16T00:37:23.856Z,99.99
2018-04-16T00:38:23.914Z,99.99
2018-04-16T00:39:23.973Z,99.99
2018-04-16T00:40:24.032Z,99.99
2018-04-16T00:41:24.092Z,99.84
2018-04-16T00:42:24.149Z,99.99
2018-04-16T00:43:24.207Z,99.84
2018-04-16T00:44:24.266Z,99.99
2018-04-16T00:45:24.325Z,99.99
2018-04-16T00:46:24.382Z,99.99
2018-04-16T00:47:24.443Z,99.99
2018-04-16T00:48:24.500Z,99.99
2018-04-16T00:49:24.559Z,99.99
2018-04-16T00:50:24.617Z,99.99
2018-04-16T00:51:24.677Z,99.99
2018-04-16T00:52:24.735Z,99.99
2018-04-16T00:53:24.793Z,99.99
2018-04-16T00:54:24.852Z,99.99
2018-04-16T00:55:24.915Z,99.99
2018-04-16T00:56:24.971Z,99.99
2018-04-16T00:57:25.029Z,99.99
2018-04-16T00:58:25.085Z,99.99
2018-04-16T00:59:25.394Z,99.99
2018-04-16T01:00:25.203Z,99.99
2018-04-16T01:01:25.262Z,99.99
2018-04-16T01:02:25.320Z,99.99
2018-04-16T01:03:25.377Z,99.99
2018-04-16T01:04:25.436Z,99.99
2018-04-16T01:05:25.496Z,99.99
2018-04-16T01:06:25.558Z,99.99
2018-04-16T01:07:25.612Z,99.99
2018-04-16T01:08:25.671Z,99.99
2018-04-16T01:09:25.729Z,99.99
2018-04-16T01:10:25.786Z,99.99
2018-04-16T01:11:25.844Z,99.99
2018-04-16T01:12:25.904Z,99.99
2018-04-16T01:13:25.963Z,99.99
2018-04-16T01:14:26.022Z,99.99
2018-04-16T01:15:26.078Z,99.99
2018-04-16T01:16:26.136Z,99.99
2018-04-16T01:17:26.195Z,99.99
2018-04-16T01:18:26.253Z,99.99
2018-04-16T01:19:26.313Z,99.99
2018-04-16T01:20:26.370Z,99.99
2018-04-16T01:21:26.427Z,99.99
2018-04-16T01:22:26.738Z,99.99
2018-04-16T01:23:26.544Z,99.99
2018-04-16T01:24:26.602Z,99.99
2018-04-16T01:25:26.662Z,99.99
2018-04-16T01:26:26.720Z,99.99
2018-04-16T01:27:26.777Z,99.99
2018-04-16T01:28:26.839Z,99.99
2018-04-16T01:29:26.897Z,99.99
2018-04-16T01:30:26.951Z,99.99
2018-04-16T01:31:27.011Z,99.99
2018-04-16T01:32:27.069Z,99.99
2018-04-16T01:33:27.128Z,99.99
2018-04-16T01:34:27.189Z,99.99
2018-04-16T01:35:27.244Z,99.99
2018-04-16T01:36:27.450Z,99.99
2018-04-16T01:37:27.367Z,99.99
2018-04-16T01:38:27.420Z,99.99
2018-04-16T01:39:27.477Z,99.99
2018-04-16T01:40:27.538Z,99.99
2018-04-16T01:41:27.593Z,99.99
2018-04-16T01:42:27.650Z,99.99
2018-04-16T01:43:27.709Z,99.99
2018-04-16T01:44:27.768Z,99.99
2018-04-16T01:45:27.825Z,99.99
2018-04-16T01:46:27.884Z,99.99
2018-04-16T01:47:27.940Z,99.99
2018-04-16T01:48:28.000Z,99.99
2018-04-16T01:49:28.058Z,99.99
2018-04-16T01:50:28.266Z,99.99
2018-04-16T01:51:28.172Z,99.99
2018-04-16T01:52:28.231Z,99.99
2018-04-16T01:53:28.293Z,99.99
2018-04-16T01:54:28.348Z,99.99
2018-04-16T01:55:28.405Z,99.99
2018-04-16T01:56:28.713Z,99.99
2018-04-16T01:57:28.520Z,99.99
2018-04-16T01:58:28.580Z,99.99
2018-04-16T01:59:28.637Z,99.99
2018-04-16T02:00:28.695Z,99.99
2018-04-16T02:01:28.753Z,99.99
2018-04-16T02:02:28.809Z,99.99
2018-04-16T02:03:28.871Z,99.99
2018-04-16T02:04:28.926Z,99.99
2018-04-16T02:05:28.984Z,99.99
2018-04-16T02:06:29.041Z,99.99
2018-04-16T02:07:29.098Z,99.99
2018-04-16T02:08:29.157Z,99.99
2018-04-16T02:09:29.214Z,99.99
2018-04-16T02:10:29.271Z,99.99
2018-04-16T02:11:29.332Z,99.99
2018-04-16T02:12:29.389Z,99.99
2018-04-16T02:13:29.447Z,99.99
2018-04-16T02:14:29.504Z,99.99
2018-04-16T02:15:29.561Z,99.99
2018-04-16T02:16:29.623Z,99.99
2018-04-16T02:17:29.677Z,99.99
2018-04-16T02:18:29.733Z,99.99
2018-04-16T02:19:29.792Z,99.99
2018-04-16T02:20:29.852Z,99.99
2018-04-16T02:21:29.909Z,99.99
2018-04-16T02:22:29.964Z,99.99
2018-04-16T02:23:30.022Z,99.99
2018-04-16T02:24:30.080Z,99.99
2018-04-16T02:25:30.139Z,99.99
2018-04-16T02:26:30.195Z,99.99
2018-04-16T02:27:30.254Z,99.99
2018-04-16T02:28:30.312Z,99.99
2018-04-16T02:29:30.371Z,99.99
2018-04-16T02:30:30.426Z,99.99
2018-04-16T02:31:30.489Z,99.99
2018-04-16T02:32:30.543Z,99.99
2018-04-16T02:33:30.611Z,99.99
2018-04-16T02:34:30.659Z,99.99
2018-04-16T02:35:30.717Z,99.99
2018-04-16T02:36:30.774Z,99.99
2018-04-16T02:37:30.831Z,99.99
2018-04-16T02:38:30.889Z,99.99
2018-04-16T02:39:30.950Z,99.99
2018-04-16T02:40:31.007Z,99.99
2018-04-16T02:41:31.063Z,99.99
2018-04-16T02:42:31.121Z,99.99
2018-04-16T02:43:31.178Z,99.99
2018-04-16T02:44:31.235Z,99.99
2018-04-16T02:45:31.294Z,99.99
2018-04-16T02:46:31.361Z,99.99
2018-04-16T02:47:31.659Z,99.99
2018-04-16T02:48:31.467Z,99.99
2018-04-16T02:49:31.524Z,99.99
2018-04-16T02:50:31.581Z,99.99
2018-04-16T02:51:31.638Z,99.99
2018-04-16T02:52:31.698Z,99.99
2018-04-16T02:53:31.755Z,99.99
2018-04-16T02:54:31.813Z,99.99
2018-04-16T02:55:31.871Z,99.99
2018-04-16T02:56:31.926Z,99.99
2018-04-16T02:57:31.986Z,99.99
2018-04-16T02:58:32.043Z,99.99
2018-04-16T02:59:32.102Z,99.99
2018-04-16T03:00:32.158Z,99.99
2018-04-16T03:01:32.215Z,99.99
2018-04-16T03:02:32.272Z,99.99
2018-04-16T03:03:32.331Z,99.99
2018-04-16T03:04:32.539Z,99.99
2018-04-16T03:05:32.445Z,99.99
2018-04-16T03:06:32.504Z,99.99
2018-04-16T03:07:32.560Z,99.99
2018-04-16T03:08:32.622Z,99.99
2018-04-16T03:09:32.675Z,99.99
2018-04-16T03:10:32.733Z,99.99
2018-04-16T03:11:32.791Z,99.99
2018-04-16T03:12:32.847Z,99.99
2018-04-16T03:13:32.907Z,99.99
2018-04-16T03:14:32.962Z,99.99
2018-04-16T03:15:33.019Z,99.99
2018-04-16T03:16:33.078Z,99.99
2018-04-16T03:17:33.135Z,99.99
2018-04-16T03:18:33.196Z,99.99
2018-04-16T03:19:33.250Z,99.99
2018-04-16T03:20:33.307Z,99.99
2018-04-16T03:21:33.365Z,99.99
2018-04-16T03:22:33.422Z,99.99
2018-04-16T03:23:33.482Z,99.99
2018-04-16T03:24:33.537Z,99.99
2018-04-16T03:25:33.752Z,99.99
2018-04-16T03:26:33.650Z,99.99
2018-04-16T03:27:33.708Z,99.99
2018-04-16T03:28:33.771Z,99.99
2018-04-16T03:29:33.823Z,99.99
2018-04-16T03:30:33.882Z,99.99
2018-04-16T03:31:34.188Z,99.99
2018-04-16T03:32:33.994Z,99.99
2018-04-16T03:33:34.052Z,99.99
2018-04-16T03:34:34.108Z,99.99
2018-04-16T03:35:34.165Z,99.99
2018-04-16T03:36:34.222Z,99.99
2018-04-16T03:37:34.532Z,99.99
2018-04-16T03:38:34.337Z,99.99
2018-04-16T03:39:34.394Z,99.99
2018-04-16T03:40:34.451Z,99.99
2018-04-16T03:41:34.508Z,99.99
2018-04-16T03:42:34.566Z,99.99
2018-04-16T03:43:34.622Z,99.99
2018-04-16T03:44:34.680Z,99.99
2018-04-16T03:45:34.738Z,99.99
2018-04-16T03:46:34.793Z,99.99
2018-04-16T03:47:34.851Z,99.99
2018-04-16T03:48:34.910Z,99.99
2018-04-16T03:49:34.966Z,99.99
2018-04-16T03:50:35.023Z,99.99
2018-04-16T03:51:35.080Z,99.99
2018-04-16T03:52:35.137Z,99.99
2018-04-16T03:53:35.345Z,99.99
2018-04-16T03:54:35.250Z,99.99
2018-04-16T03:55:35.312Z,99.99
2018-04-16T03:56:35.368Z,99.99
2018-04-16T03:57:35.423Z,99.99
2018-04-16T03:58:35.480Z,99.99
2018-04-16T03:59:35.539Z,99.99
2018-04-16T04:00:35.597Z,99.99
2018-04-16T04:01:35.651Z,99.99
2018-04-16T04:02:35.707Z,99.99
2018-04-16T04:03:35.764Z,99.99
2018-04-16T04:04:35.824Z,99.99
2018-04-16T04:05:35.879Z,99.99
2018-04-16T04:06:35.935Z,99.99
2018-04-16T04:07:35.994Z,99.99
2018-04-16T04:08:36.051Z,99.99
2018-04-16T04:09:36.108Z,99.99
2018-04-16T04:10:36.165Z,99.99
2018-04-16T04:11:36.220Z,99.99
2018-04-16T04:12:36.279Z,99.99
2018-04-16T04:13:36.336Z,99.99
2018-04-16T04:14:36.391Z,99.99
2018-04-16T04:15:36.448Z,99.99
2018-04-16T04:16:36.507Z,99.99
2018-04-16T04:17:36.564Z,99.99
2018-04-16T04:18:36.620Z,99.99
2018-04-16T04:19:36.681Z,99.99
2018-04-16T04:20:36.735Z,99.99
2018-04-16T04:21:36.791Z,99.99
2018-04-16T04:22:36.858Z,99.99
2018-04-16T04:23:36.921Z,99.99
2018-04-16T04:24:36.963Z,99.99
2018-04-16T04:25:37.028Z,99.99
2018-04-16T04:26:37.077Z,99.99
2018-04-16T04:27:37.133Z,99.99
2018-04-16T04:28:37.196Z,99.99
2018-04-16T04:29:37.249Z,99.99
2018-04-16T04:30:37.305Z,99.99
2018-04-16T04:31:37.361Z,99.99
2018-04-16T04:32:37.418Z,99.99
2018-04-16T04:33:37.477Z,99.99
2018-04-16T04:34:37.537Z,99.99
2018-04-16T04:35:37.590Z,99.99
2018-04-16T04:36:37.648Z,99.99
2018-04-16T04:37:37.706Z,99.99
2018-04-16T04:38:37.760Z,99.99
2018-04-16T04:39:38.348Z,99.99
2018-04-16T04:40:37.876Z,99.99
2018-04-16T04:41:37.932Z,99.99
2018-04-16T04:42:37.989Z,99.99
2018-04-16T04:43:38.047Z,99.99
2018-04-16T04:44:38.105Z,99.99
2018-04-16T04:45:38.160Z,99.99
2018-04-16T04:46:38.217Z,99.99
2018-04-16T04:47:38.277Z,99.99
2018-04-16T04:48:38.330Z,99.99
2018-04-16T04:49:38.862Z,99.99
2018-04-16T04:50:38.445Z,99.99
2018-04-16T04:51:38.506Z,99.99
2018-04-16T04:52:38.561Z,99.99
2018-04-16T04:53:38.617Z,99.99
2018-04-16T04:54:38.675Z,99.99
2018-04-16T04:55:38.730Z,99.99
2018-04-16T04:56:38.788Z,99.99
2018-04-16T04:57:39.047Z,99.99
2018-04-16T04:58:38.901Z,99.99
2018-04-16T04:59:38.975Z,99.99
2018-04-16T05:00:39.017Z,99.99
2018-04-16T05:01:39.073Z,99.99
2018-04-16T05:02:39.130Z,99.99
2018-04-16T05:03:39.188Z,99.99
2018-04-16T05:04:39.244Z,99.99
2018-04-16T05:05:39.302Z,99.99
2018-04-16T05:06:39.357Z,99.99
2018-04-16T05:07:39.414Z,99.99
2018-04-16T05:08:39.471Z,99.99
2018-04-16T05:09:39.530Z,99.99
2018-04-16T05:10:40.066Z,99.99
2018-04-16T05:11:39.644Z,99.99
2018-04-16T05:12:39.700Z,99.99
2018-04-16T05:13:39.758Z,99.99
2018-04-16T05:14:39.814Z,99.99
2018-04-16T05:15:39.872Z,99.99
2018-04-16T05:16:39.928Z,99.99
2018-04-16T05:17:39.988Z,99.99
2018-04-16T05:18:40.041Z,99.99
2018-04-16T05:19:40.100Z,99.99
2018-04-16T05:20:40.309Z,99.99
2018-04-16T05:21:40.214Z,99.99
2018-04-16T05:22:40.292Z,99.99
2018-04-16T05:23:40.377Z,99.99
2018-04-16T05:24:40.385Z,99.99
2018-04-16T05:25:40.442Z,99.99
2018-04-16T05:26:40.502Z,99.99
2018-04-16T05:27:40.555Z,99.99
2018-04-16T05:28:40.622Z,99.99
2018-04-16T05:29:40.671Z,99.99
2018-04-16T05:30:40.745Z,99.99
2018-04-16T05:31:40.783Z,99.99
2018-04-16T05:32:40.841Z,99.99
2018-04-16T05:33:40.899Z,99.99
2018-04-16T05:34:40.954Z,99.99
2018-04-16T05:35:41.024Z,99.99
2018-04-16T05:36:41.072Z,99.99
2018-04-16T05:37:41.129Z,99.99
2018-04-16T05:38:41.205Z,99.99
2018-04-16T05:39:41.558Z,99.99
2018-04-16T05:40:41.298Z,99.99
2018-04-16T05:41:41.357Z,99.99
2018-04-16T05:42:41.417Z,99.99
2018-04-16T05:43:41.469Z,99.99
2018-04-16T05:44:41.527Z,99.99
2018-04-16T05:45:41.585Z,99.99
2018-04-16T05:46:41.642Z,99.99
2018-04-16T05:47:41.700Z,99.99
2018-04-16T05:48:41.757Z,99.99
2018-04-16T05:49:41.814Z,99.99
2018-04-16T05:50:41.871Z,99.99
2018-04-16T05:51:41.933Z,99.99
2018-04-16T05:52:41.986Z,99.99
2018-04-16T05:53:42.044Z,99.99
2018-04-16T05:54:42.099Z,99.99
2018-04-16T05:55:42.159Z,99.99
2018-04-16T05:56:42.216Z,99.99
2018-04-16T05:57:42.272Z,99.99
2018-04-16T05:58:42.329Z,99.99
2018-04-16T05:59:42.388Z,99.99
2018-04-16T06:00:42.456Z,99.99
2018-04-16T06:01:42.502Z,99.99
2018-04-16T06:02:42.568Z,99.99
2018-04-16T06:03:42.618Z,99.99
2018-04-16T06:04:42.675Z,99.99
2018-04-16T06:05:42.733Z,99.99
2018-04-16T06:06:42.793Z,99.99
2018-04-16T06:07:42.849Z,99.99
2018-04-16T06:08:42.905Z,99.99
2018-04-16T06:09:42.964Z,99.99
2018-04-16T06:10:43.024Z,99.99
2018-04-16T06:11:43.079Z,99.99
2018-04-16T06:12:43.138Z,99.99
2018-04-16T06:13:43.194Z,99.99
2018-04-16T06:14:43.252Z,99.99
2018-04-16T06:15:43.309Z,99.99
2018-04-16T06:16:43.368Z,99.99
2018-04-16T06:17:43.427Z,99.99
2018-04-16T06:18:43.484Z,99.99
2018-04-16T06:19:43.541Z,99.99
2018-04-16T06:20:43.601Z,99.99
2018-04-16T06:21:44.149Z,99.99
2018-04-16T06:22:43.717Z,99.99
2018-04-16T06:23:43.775Z,99.99
2018-04-16T06:24:43.833Z,99.99
2018-04-16T06:25:43.892Z,99.99
2018-04-16T06:26:43.953Z,99.99
2018-04-16T06:27:44.006Z,99.99
2018-04-16T06:28:44.066Z,99.99
2018-04-16T06:29:44.124Z,99.99
2018-04-16T06:30:44.182Z,99.99
2018-04-16T06:31:44.242Z,99.99
2018-04-16T06:32:44.299Z,99.99
2018-04-16T06:33:44.357Z,99.99
2018-04-16T06:34:44.415Z,99.99
2018-04-16T06:35:44.862Z,99.99
2018-04-16T06:36:44.560Z,99.99
2018-04-16T06:37:44.593Z,99.99
2018-04-16T06:38:44.649Z,99.99
2018-04-16T06:39:44.709Z,99.99
2018-04-16T06:40:44.768Z,99.99
2018-04-16T06:41:44.828Z,99.99
2018-04-16T06:42:44.884Z,99.99
2018-04-16T06:43:44.946Z,99.99
2018-04-16T06:44:45.003Z,99.99
2018-04-16T06:45:45.067Z,99.99
2018-04-16T06:46:45.120Z,99.99
2018-04-16T06:47:45.760Z,99.99
2018-04-16T06:48:45.238Z,99.99
2018-04-16T06:49:45.297Z,99.99
2018-04-16T06:50:45.358Z,99.99
2018-04-16T06:51:45.416Z,99.99
2018-04-16T06:52:45.476Z,99.99
2018-04-16T06:53:45.533Z,99.99
2018-04-16T06:54:45.596Z,99.99
2018-04-16T06:55:45.652Z,99.99
2018-04-16T06:56:45.712Z,99.99
2018-04-16T06:57:45.920Z,99.99
2018-04-16T06:58:45.828Z,99.99
2018-04-16T06:59:45.892Z,99.99
2018-04-16T07:00:45.960Z,99.99
2018-04-16T07:01:46.024Z,99.99
2018-04-16T07:02:46.066Z,99.99
2018-04-16T07:03:46.126Z,99.99
2018-04-16T07:04:46.188Z,99.99
2018-04-16T07:05:46.244Z,99.99
2018-04-16T07:06:46.767Z,99.99
2018-04-16T07:07:46.979Z,99.99
2018-04-16T07:08:46.422Z,99.99
2018-04-16T07:09:46.482Z,99.99
2018-04-16T07:10:46.534Z,99.99
2018-04-16T07:11:46.593Z,99.99
2018-04-16T07:12:46.653Z,99.99
2018-04-16T07:13:46.712Z,99.99
2018-04-16T07:14:46.771Z,99.99
2018-04-16T07:15:46.867Z,99.99
2018-04-16T07:16:46.890Z,99.99
2018-04-16T07:17:46.947Z,99.99
2018-04-16T07:18:47.005Z,99.99
2018-04-16T07:19:47.068Z,99.99
2018-04-16T07:20:47.125Z,99.99
2018-04-16T07:21:47.184Z,99.99
2018-04-16T07:22:47.245Z,99.99
2018-04-16T07:23:47.302Z,99.99
2018-04-16T07:24:47.361Z,99.99
2018-04-16T07:25:47.419Z,99.99
2018-04-16T07:26:47.480Z,99.99
2018-04-16T07:27:47.536Z,99.99
2018-04-16T07:28:47.596Z,99.99
2018-04-16T07:29:47.657Z,99.99
2018-04-16T07:30:47.712Z,99.99
2018-04-16T07:31:47.774Z,99.99
2018-04-16T07:32:47.832Z,99.99
2018-04-16T07:33:47.890Z,99.99
2018-04-16T07:34:47.984Z,99.99
2018-04-16T07:35:48.016Z,99.99
2018-04-16T07:36:48.067Z,99.99
2018-04-16T07:37:48.127Z,99.99
2018-04-16T07:38:48.185Z,99.99
2018-04-16T07:39:48.245Z,99.99
2018-04-16T07:40:48.305Z,99.99
2018-04-16T07:41:48.365Z,99.99
2018-04-16T07:42:48.423Z,99.99
2018-04-16T07:43:48.515Z,99.99
2018-04-16T07:44:48.541Z,99.99
2018-04-16T07:45:48.601Z,99.99
2018-04-16T07:46:48.660Z,99.99
2018-04-16T07:47:48.719Z,99.99
2018-04-16T07:48:48.779Z,99.99
2018-04-16T07:49:48.840Z,99.99
2018-04-16T07:50:48.895Z,99.99
2018-04-16T07:51:48.959Z,99.99
2018-04-16T07:52:49.015Z,99.99
2018-04-16T07:53:49.076Z,99.99
2018-04-16T07:54:49.134Z,99.99
2018-04-16T07:55:49.194Z,99.99
2018-04-16T07:56:49.565Z,99.99
2018-04-16T07:57:49.318Z,99.99
2018-04-16T07:58:49.372Z,99.99
2018-04-16T07:59:49.432Z,99.99
2018-04-16T08:00:49.492Z,99.99
2018-04-16T08:01:49.553Z,99.99
2018-04-16T08:02:49.614Z,99.99
2018-04-16T08:03:49.673Z,99.99
2018-04-16T08:04:49.733Z,99.99
2018-04-16T08:05:49.839Z,99.85
2018-04-16T08:06:49.851Z,99.85
2018-04-16T08:07:49.913Z,98.99
2018-04-16T08:08:49.970Z,99.47
2018-04-16T08:09:50.033Z,98.47
2018-04-16T08:10:50.091Z,97.71
2018-04-16T08:11:50.152Z,97.61
2018-04-16T08:12:50.213Z,96.94
2018-04-16T08:13:50.273Z,97.03
2018-04-16T08:14:50.333Z,96.51
2018-04-16T08:15:50.703Z,96.32
2018-04-16T08:16:50.456Z,95.84
2018-04-16T08:17:50.515Z,94.93
2018-04-16T08:18:50.576Z,94.36
2018-04-16T08:19:50.638Z,93.98
2018-04-16T08:20:50.706Z,94.17
2018-04-16T08:21:50.761Z,93.21
2018-04-16T08:22:50.821Z,92.74
2018-04-16T08:23:50.883Z,92.45
2018-04-16T08:24:50.954Z,92.59
2018-04-16T08:25:51.006Z,92.11
2018-04-16T08:26:51.388Z,90.48
2018-04-16T08:27:51.128Z,90.30
2018-04-16T08:28:51.190Z,89.91
2018-04-16T08:29:51.310Z,89.24
2018-04-16T08:30:51.314Z,87.90
2018-04-16T08:31:51.378Z,88.13
2018-04-16T08:32:51.438Z,87.85
2018-04-16T08:33:51.501Z,87.66
2018-04-16T08:34:51.561Z,87.70
2018-04-16T08:35:51.625Z,86.55
2018-04-16T08:36:51.688Z,85.69
2018-04-16T08:37:52.305Z,85.98
2018-04-16T08:38:51.811Z,84.92
2018-04-16T08:39:51.873Z,84.64
2018-04-16T08:40:51.936Z,84.74
2018-04-16T08:41:52.000Z,84.68
2018-04-16T08:42:52.061Z,85.45
2018-04-16T08:43:52.125Z,84.49
2018-04-16T08:44:52.189Z,83.86
2018-04-16T08:45:52.252Z,82.32
2018-04-16T08:46:52.313Z,82.19
2018-04-16T08:47:52.376Z,83.25
2018-04-16T08:48:52.441Z,83.29
2018-04-16T08:49:52.505Z,82.52
2018-04-16T08:50:52.567Z,82.04
2018-04-16T08:51:52.631Z,80.99
2018-04-16T08:52:52.695Z,80.93
2018-04-16T08:53:52.759Z,79.88
2018-04-16T08:54:52.822Z,79.93
2018-04-16T08:55:52.887Z,79.78
2018-04-16T08:56:52.951Z,79.59
2018-04-16T08:57:53.014Z,79.59
2018-04-16T08:58:53.081Z,79.24
2018-04-16T08:59:53.143Z,78.67
2018-04-16T09:00:53.209Z,78.15
2018-04-16T09:01:53.274Z,77.61
2018-04-16T09:02:53.342Z,76.56
2018-04-16T09:03:53.399Z,75.60
2018-04-16T09:04:53.465Z,75.60
2018-04-16T09:05:53.530Z,74.16
2018-04-16T09:06:53.592Z,73.87
2018-04-16T09:07:53.658Z,73.00
2018-04-16T09:08:53.723Z,72.63
2018-04-16T09:09:53.786Z,73.20
2018-04-16T09:10:53.852Z,72.72
2018-04-16T09:11:53.915Z,71.95
2018-04-16T09:12:53.981Z,71.19
2018-04-16T09:13:54.045Z,71.47
2018-04-16T09:14:54.110Z,70.80
2018-04-16T09:15:54.175Z,69.97
2018-04-16T09:16:54.239Z,69.59
2018-04-16T09:17:54.305Z,69.11
2018-04-16T09:18:54.367Z,68.91
2018-04-16T09:19:54.435Z,69.01
2018-04-16T09:20:54.498Z,69.20
2018-04-16T09:21:54.570Z,68.95
2018-04-16T09:22:54.666Z,68.57
2018-04-16T09:23:55.089Z,68.60
2018-04-16T09:24:54.762Z,68.21
2018-04-16T09:25:54.877Z,68.12
2018-04-16T09:26:54.894Z,66.77
2018-04-16T09:27:54.957Z,66.71
2018-04-16T09:28:55.022Z,65.84
2018-04-16T09:29:55.088Z,65.78
2018-04-16T09:30:55.152Z,65.30
2018-04-16T09:31:55.217Z,64.73
2018-04-16T09:32:55.291Z,64.73
2018-04-16T09:33:55.350Z,64.73
2018-04-16T09:34:55.415Z,64.82
2018-04-16T09:35:55.516Z,64.05
2018-04-16T09:36:55.547Z,64.08
2018-04-16T09:37:56.289Z,64.08
2018-04-16T09:38:55.680Z,64.89
2018-04-16T09:39:55.746Z,65.56
2018-04-16T09:40:55.822Z,65.17
2018-04-16T09:41:55.880Z,64.79
2018-04-16T09:42:55.947Z,64.82
2018-04-16T09:43:56.011Z,64.73
2018-04-16T09:44:56.077Z,63.57
2018-04-16T09:45:56.143Z,63.67
2018-04-16T09:46:56.215Z,63.86
2018-04-16T09:47:56.275Z,63.67
2018-04-16T09:48:56.345Z,63.64
2018-04-16T09:49:56.407Z,63.73
2018-04-16T09:50:56.475Z,63.86
2018-04-16T09:51:56.539Z,63.95
2018-04-16T09:52:56.606Z,63.67
2018-04-16T09:53:56.672Z,63.48
2018-04-16T09:54:56.736Z,63.48
2018-04-16T09:55:56.821Z,63.28
2018-04-16T09:56:56.871Z,63.18
2018-04-16T09:57:56.933Z,63.31
2018-04-16T09:58:57.000Z,62.93
2018-04-16T09:59:57.065Z,62.83
2018-04-16T10:00:57.180Z,62.83
2018-04-16T10:01:57.206Z,62.93
2018-04-16T10:02:57.263Z,62.35
2018-04-16T10:03:57.329Z,62.83
2018-04-16T10:04:57.398Z,62.71
2018-04-16T10:05:57.472Z,63.18
2018-04-16T10:06:57.524Z,63.28
2018-04-16T10:07:57.594Z,62.41
2018-04-16T10:08:57.656Z,61.10
2018-04-16T10:09:57.720Z,60.72
2018-04-16T10:10:57.785Z,60.72
2018-04-16T10:11:57.854Z,61.10
2018-04-16T10:12:57.926Z,60.04
2018-04-16T10:13:57.981Z,58.50
2018-04-16T10:14:58.047Z,57.73
2018-04-16T10:15:58.112Z,57.22
2018-04-16T10:16:58.176Z,57.51
2018-04-16T10:17:58.252Z,57.45
2018-04-16T10:18:58.307Z,56.67
2018-04-16T10:19:58.371Z,58.12
2018-04-16T10:20:58.437Z,58.12
2018-04-16T10:21:58.502Z,57.73
2018-04-16T10:22:58.567Z,57.45
2018-04-16T10:23:58.631Z,56.96
2018-04-16T10:24:58.697Z,56.29
2018-04-16T10:25:58.762Z,55.13
2018-04-16T10:26:59.284Z,54.85
2018-04-16T10:27:58.894Z,55.33
2018-04-16T10:28:58.959Z,56.00
2018-04-16T10:29:59.022Z,56.29
2018-04-16T10:30:59.085Z,55.71
2018-04-16T10:31:59.151Z,55.93
2018-04-16T10:32:59.216Z,55.77
2018-04-16T10:33:59.281Z,55.00
2018-04-16T10:34:59.345Z,54.44
2018-04-16T10:35:59.412Z,53.19
2018-04-16T10:36:59.478Z,52.35
2018-04-16T10:37:59.544Z,51.87
2018-04-16T10:38:59.611Z,51.00
2018-04-16T10:39:59.678Z,49.77
2018-04-16T10:40:59.784Z,49.10
2018-04-16T10:41:59.816Z,48.52
2018-04-16T10:42:59.883Z,48.54
2018-04-16T10:43:59.953Z,47.19
2018-04-16T10:45:00.021Z,45.94
2018-04-16T10:46:00.090Z,45.57
2018-04-16T10:47:00.167Z,45.50
2018-04-16T10:48:00.231Z,44.29
2018-04-16T10:49:00.302Z,43.95
2018-04-16T10:50:00.371Z,45.67
2018-04-16T10:51:00.442Z,45.79
2018-04-16T10:52:00.511Z,45.52
2018-04-16T10:53:00.584Z,44.19
2018-04-16T10:54:00.655Z,43.71
2018-04-16T10:55:00.725Z,43.24
2018-04-16T10:56:00.796Z,42.30
2018-04-16T10:57:00.868Z,42.18
2018-04-16T10:58:00.941Z,42.07
2018-04-16T10:59:01.012Z,41.70
2018-04-16T11:00:01.088Z,41.39
2018-04-16T11:01:01.155Z,41.67
2018-04-16T11:02:01.256Z,41.50
2018-04-16T11:03:01.306Z,40.44
2018-04-16T11:04:01.375Z,40.63
2018-04-16T11:05:01.443Z,39.20
2018-04-16T11:06:01.557Z,39.47
2018-04-16T11:07:01.587Z,40.13
2018-04-16T11:08:01.660Z,40.13
2018-04-16T11:09:01.736Z,40.13
2018-04-16T11:10:01.807Z,39.76
2018-04-16T11:11:01.877Z,38.99
2018-04-16T11:12:01.950Z,39.26
2018-04-16T11:13:02.046Z,41.93
2018-04-16T11:14:02.097Z,42.66
2018-04-16T11:15:02.167Z,43.70
2018-04-16T11:16:02.241Z,44.18
2018-04-16T11:17:02.312Z,43.18
2018-04-16T11:18:02.384Z,41.17
2018-04-16T11:19:02.455Z,40.42
2018-04-16T11:20:02.528Z,39.36
2018-04-16T11:21:02.599Z,38.60
2018-04-16T11:22:02.671Z,37.88
2018-04-16T11:23:02.742Z,38.81
2018-04-16T11:24:02.814Z,41.94
2018-04-16T11:25:02.885Z,41.53
2018-04-16T11:26:03.477Z,42.49
2018-04-16T11:27:03.692Z,43.54
2018-04-16T11:28:03.103Z,44.32
2018-04-16T11:29:03.261Z,44.11
2018-04-16T11:30:03.975Z,43.44
2018-04-16T11:31:03.308Z,43.24
2018-04-16T11:32:03.378Z,42.57
2018-04-16T11:33:03.453Z,43.41
2018-04-16T11:34:03.518Z,44.57
2018-04-16T11:35:03.619Z,44.19
2018-04-16T11:36:03.654Z,43.90
2018-04-16T11:37:03.722Z,43.99
2018-04-16T11:38:03.790Z,44.09
2018-04-16T11:39:03.859Z,44.21
2018-04-16T11:40:03.926Z,44.28
2018-04-16T11:41:03.993Z,44.09
2018-04-16T11:42:04.061Z,44.28
2018-04-16T11:43:04.128Z,44.28
2018-04-16T11:44:04.195Z,44.11
2018-04-16T11:45:04.263Z,44.11
2018-04-16T11:46:04.329Z,43.92
2018-04-16T11:47:04.397Z,43.15
2018-04-16T11:48:04.462Z,43.05
2018-04-16T11:49:04.531Z,43.05
2018-04-16T11:50:04.596Z,43.54
2018-04-16T11:51:04.664Z,42.67
2018-04-16T11:52:04.729Z,43.15
2018-04-16T11:53:04.798Z,42.19
2018-04-16T11:54:04.864Z,42.09
2018-04-16T11:55:04.929Z,42.28
2018-04-16T11:56:04.997Z,41.24
2018-04-16T11:57:05.064Z,39.70
2018-04-16T11:58:05.132Z,38.45
2018-04-16T11:59:05.194Z,37.85
2018-04-16T12:00:05.262Z,38.78
2018-04-16T12:01:05.332Z,37.73
2018-04-16T12:02:05.396Z,37.00
2018-04-16T12:03:05.463Z,32.17
2018-04-16T12:04:05.534Z,33.72
2018-04-16T12:05:05.597Z,32.79
2018-04-16T12:06:05.665Z,31.36
2018-04-16T12:07:05.732Z,30.23
2018-04-16T12:08:05.801Z,29.16
2018-04-16T12:09:05.869Z,25.10
2018-04-16T12:10:05.938Z,25.47
2018-04-16T12:11:06.007Z,26.53
2018-04-16T12:12:06.076Z,26.43
2018-04-16T12:13:06.145Z,27.47
2018-04-16T12:14:06.219Z,28.38
2018-04-16T12:15:06.288Z,28.18
2018-04-16T12:16:06.357Z,28.55
2018-04-16T12:17:06.428Z,28.38
2018-04-16T12:18:06.500Z,27.81
2018-04-16T12:19:06.572Z,26.37
2018-04-16T12:20:06.640Z,25.51
2018-04-16T12:21:06.747Z,24.35
2018-04-16T12:22:06.795Z,23.59
2018-04-16T12:23:06.851Z,22.52
2018-04-16T12:24:06.926Z,22.97
2018-04-16T12:25:06.996Z,23.36
2018-04-16T12:26:07.067Z,23.06
2018-04-16T12:27:07.138Z,23.92
2018-04-16T12:28:07.210Z,24.49
2018-04-16T12:29:07.283Z,23.93
2018-04-16T12:30:07.357Z,23.57
2018-04-16T12:31:07.426Z,23.47
2018-04-16T12:32:12.977Z,22.81
2018-04-16T12:33:07.583Z,21.81
2018-04-16T12:34:07.643Z,22.39
2018-04-16T12:35:07.741Z,22.20
2018-04-16T12:36:07.790Z,21.33
2018-04-16T12:37:07.861Z,22.20
2018-04-16T12:38:07.932Z,22.11
2018-04-16T12:39:08.025Z,22.19
2018-04-16T12:40:08.078Z,22.39
2018-04-16T12:41:08.149Z,21.81
2018-04-16T12:42:08.222Z,21.91
2018-04-16T12:43:08.294Z,22.48
2018-04-16T12:44:08.370Z,21.72
2018-04-16T12:45:08.440Z,22.30
2018-04-16T12:46:08.513Z,22.39
2018-04-16T12:47:08.584Z,22.66
2018-04-16T12:48:08.712Z,23.06
2018-04-16T12:49:08.728Z,22.67
2018-04-16T12:50:08.803Z,21.25
2018-04-16T12:51:08.875Z,21.06
2018-04-16T12:52:08.947Z,20.48
2018-04-16T12:53:09.021Z,19.42